sensor_id;sensor_type;location;lat;lon;timestamp;P1;durP1;ratioP1;P2;durP2;ratioP2
51326;SDS011;37412;52.836;6.362;2023-03-08T00:02:00;5.35;;;1.90;;
51326;SDS011;37412;52.836;6.362;2023-03-08T00:04:46;4.85;;;2.50;;
51326;SDS011;37412;52.836;6.362;2023-03-08T00:07:32;5.25;;;2.25;;
51326;SDS011;37412;52.836;6.362;2023-03-08T00:10:18;4.38;;;2.22;;
51326;SDS011;37412;52.836;6.362;2023-03-08T00:13:04;5.90;;;2.70;;
51326;SDS011;37412;52.836;6.362;2023-03-08T00:15:50;4.95;;;2.20;;
51326;SDS011;37412;52.836;6.362;2023-03-08T00:18:37;5.00;;;2.72;;
51326;SDS011;37412;52.836;6.362;2023-03-08T00:21:23;4.68;;;2.35;;
51326;SDS011;37412;52.836;6.362;2023-03-08T00:24:10;6.95;;;2.70;;
51326;SDS011;37412;52.836;6.362;2023-03-08T00:26:56;4.07;;;2.55;;
51326;SDS011;37412;52.836;6.362;2023-03-08T00:29:42;3.17;;;2.10;;
51326;SDS011;37412;52.836;6.362;2023-03-08T00:32:28;3.88;;;2.55;;
51326;SDS011;37412;52.836;6.362;2023-03-08T00:35:14;4.43;;;2.50;;
51326;SDS011;37412;52.836;6.362;2023-03-08T00:38:00;3.47;;;2.03;;
51326;SDS011;37412;52.836;6.362;2023-03-08T00:40:46;4.13;;;2.58;;
51326;SDS011;37412;52.836;6.362;2023-03-08T00:43:32;3.47;;;2.38;;
51326;SDS011;37412;52.836;6.362;2023-03-08T00:46:19;7.13;;;2.50;;
51326;SDS011;37412;52.836;6.362;2023-03-08T00:49:04;3.90;;;2.42;;
51326;SDS011;37412;52.836;6.362;2023-03-08T00:51:50;4.80;;;2.25;;
51326;SDS011;37412;52.836;6.362;2023-03-08T00:54:36;3.42;;;2.10;;
51326;SDS011;37412;52.836;6.362;2023-03-08T00:57:22;5.80;;;2.60;;
51326;SDS011;37412;52.836;6.362;2023-03-08T01:00:09;6.95;;;2.67;;
51326;SDS011;37412;52.836;6.362;2023-03-08T01:02:57;5.63;;;2.40;;
51326;SDS011;37412;52.836;6.362;2023-03-08T01:05:44;4.53;;;2.30;;
51326;SDS011;37412;52.836;6.362;2023-03-08T01:08:32;6.45;;;2.58;;
51326;SDS011;37412;52.836;6.362;2023-03-08T01:11:19;5.07;;;2.80;;
51326;SDS011;37412;52.836;6.362;2023-03-08T01:14:09;6.22;;;2.38;;
51326;SDS011;37412;52.836;6.362;2023-03-08T01:16:55;7.50;;;3.15;;
51326;SDS011;37412;52.836;6.362;2023-03-08T01:19:41;6.70;;;3.10;;
51326;SDS011;37412;52.836;6.362;2023-03-08T01:22:27;5.18;;;2.97;;
51326;SDS011;37412;52.836;6.362;2023-03-08T01:25:13;5.43;;;2.95;;
51326;SDS011;37412;52.836;6.362;2023-03-08T01:27:59;6.38;;;3.50;;
51326;SDS011;37412;52.836;6.362;2023-03-08T01:30:45;6.05;;;3.25;;
51326;SDS011;37412;52.836;6.362;2023-03-08T01:33:31;6.32;;;4.03;;
51326;SDS011;37412;52.836;6.362;2023-03-08T01:36:18;7.97;;;4.57;;
51326;SDS011;37412;52.836;6.362;2023-03-08T01:39:05;7.03;;;4.60;;
51326;SDS011;37412;52.836;6.362;2023-03-08T01:41:51;7.75;;;5.40;;
51326;SDS011;37412;52.836;6.362;2023-03-08T01:44:51;10.90;;;6.28;;
51326;SDS011;37412;52.836;6.362;2023-03-08T01:47:37;10.50;;;6.50;;
51326;SDS011;37412;52.836;6.362;2023-03-08T01:50:23;15.55;;;7.78;;
51326;SDS011;37412;52.836;6.362;2023-03-08T01:53:09;16.13;;;8.77;;
51326;SDS011;37412;52.836;6.362;2023-03-08T01:55:55;14.57;;;9.00;;
51326;SDS011;37412;52.836;6.362;2023-03-08T01:58:42;14.93;;;9.88;;
51326;SDS011;37412;52.836;6.362;2023-03-08T02:01:30;15.60;;;10.52;;
51326;SDS011;37412;52.836;6.362;2023-03-08T02:04:18;14.95;;;9.43;;
51326;SDS011;37412;52.836;6.362;2023-03-08T02:07:05;19.42;;;10.43;;
51326;SDS011;37412;52.836;6.362;2023-03-08T02:09:51;14.95;;;10.15;;
51326;SDS011;37412;52.836;6.362;2023-03-08T02:12:37;17.70;;;10.77;;
51326;SDS011;37412;52.836;6.362;2023-03-08T02:15:25;17.15;;;10.75;;
51326;SDS011;37412;52.836;6.362;2023-03-08T02:18:11;17.48;;;10.40;;
51326;SDS011;37412;52.836;6.362;2023-03-08T02:20:57;15.05;;;10.63;;
51326;SDS011;37412;52.836;6.362;2023-03-08T02:23:43;14.52;;;10.23;;
51326;SDS011;37412;52.836;6.362;2023-03-08T02:26:29;17.40;;;10.90;;
51326;SDS011;37412;52.836;6.362;2023-03-08T02:29:15;15.80;;;11.05;;
51326;SDS011;37412;52.836;6.362;2023-03-08T02:32:01;19.13;;;11.50;;
51326;SDS011;37412;52.836;6.362;2023-03-08T02:34:47;19.60;;;11.30;;
51326;SDS011;37412;52.836;6.362;2023-03-08T02:37:33;18.63;;;10.98;;
51326;SDS011;37412;52.836;6.362;2023-03-08T02:40:19;18.50;;;10.90;;
51326;SDS011;37412;52.836;6.362;2023-03-08T02:43:06;15.82;;;11.35;;
51326;SDS011;37412;52.836;6.362;2023-03-08T02:45:52;15.23;;;10.70;;
51326;SDS011;37412;52.836;6.362;2023-03-08T02:48:38;15.50;;;9.98;;
51326;SDS011;37412;52.836;6.362;2023-03-08T02:51:24;17.08;;;10.52;;
51326;SDS011;37412;52.836;6.362;2023-03-08T02:54:10;15.90;;;10.68;;
51326;SDS011;37412;52.836;6.362;2023-03-08T02:56:56;16.63;;;10.98;;
51326;SDS011;37412;52.836;6.362;2023-03-08T02:59:42;18.60;;;10.80;;
51326;SDS011;37412;52.836;6.362;2023-03-08T03:02:28;16.88;;;10.63;;
51326;SDS011;37412;52.836;6.362;2023-03-08T03:05:13;16.88;;;11.32;;
51326;SDS011;37412;52.836;6.362;2023-03-08T03:07:59;19.42;;;11.63;;
51326;SDS011;37412;52.836;6.362;2023-03-08T03:10:45;15.93;;;10.65;;
51326;SDS011;37412;52.836;6.362;2023-03-08T03:13:31;18.48;;;11.43;;
51326;SDS011;37412;52.836;6.362;2023-03-08T03:16:17;15.35;;;10.73;;
51326;SDS011;37412;52.836;6.362;2023-03-08T03:19:03;20.45;;;11.85;;
51326;SDS011;37412;52.836;6.362;2023-03-08T03:21:49;16.70;;;10.35;;
51326;SDS011;37412;52.836;6.362;2023-03-08T03:24:35;14.40;;;10.70;;
51326;SDS011;37412;52.836;6.362;2023-03-08T03:27:21;15.00;;;9.95;;
51326;SDS011;37412;52.836;6.362;2023-03-08T03:30:07;18.58;;;11.07;;
51326;SDS011;37412;52.836;6.362;2023-03-08T03:32:54;16.92;;;11.15;;
51326;SDS011;37412;52.836;6.362;2023-03-08T03:35:40;19.15;;;10.65;;
51326;SDS011;37412;52.836;6.362;2023-03-08T03:38:26;15.45;;;10.15;;
51326;SDS011;37412;52.836;6.362;2023-03-08T03:41:14;16.23;;;9.82;;
51326;SDS011;37412;52.836;6.362;2023-03-08T03:44:04;18.98;;;10.85;;
51326;SDS011;37412;52.836;6.362;2023-03-08T03:46:50;15.73;;;10.63;;
51326;SDS011;37412;52.836;6.362;2023-03-08T03:49:36;15.63;;;10.23;;
51326;SDS011;37412;52.836;6.362;2023-03-08T03:52:22;13.80;;;9.75;;
51326;SDS011;37412;52.836;6.362;2023-03-08T03:55:08;14.32;;;10.10;;
51326;SDS011;37412;52.836;6.362;2023-03-08T03:57:54;16.25;;;9.63;;
51326;SDS011;37412;52.836;6.362;2023-03-08T04:00:40;16.65;;;9.55;;
51326;SDS011;37412;52.836;6.362;2023-03-08T04:03:26;16.20;;;9.95;;
51326;SDS011;37412;52.836;6.362;2023-03-08T04:06:26;14.00;;;9.27;;
51326;SDS011;37412;52.836;6.362;2023-03-08T04:09:14;12.57;;;9.63;;
51326;SDS011;37412;52.836;6.362;2023-03-08T04:12:02;13.25;;;9.73;;
51326;SDS011;37412;52.836;6.362;2023-03-08T04:14:51;17.88;;;9.27;;
51326;SDS011;37412;52.836;6.362;2023-03-08T04:17:37;15.85;;;10.10;;
51326;SDS011;37412;52.836;6.362;2023-03-08T04:20:23;15.88;;;9.95;;
51326;SDS011;37412;52.836;6.362;2023-03-08T04:23:09;14.90;;;9.57;;
51326;SDS011;37412;52.836;6.362;2023-03-08T04:25:55;15.75;;;10.02;;
51326;SDS011;37412;52.836;6.362;2023-03-08T04:28:41;15.88;;;10.15;;
51326;SDS011;37412;52.836;6.362;2023-03-08T04:31:28;14.63;;;9.98;;
51326;SDS011;37412;52.836;6.362;2023-03-08T04:34:14;18.08;;;9.73;;
51326;SDS011;37412;52.836;6.362;2023-03-08T04:37:00;14.07;;;10.68;;
51326;SDS011;37412;52.836;6.362;2023-03-08T04:39:46;15.90;;;9.68;;
51326;SDS011;37412;52.836;6.362;2023-03-08T04:42:32;15.30;;;10.32;;
51326;SDS011;37412;52.836;6.362;2023-03-08T04:45:18;15.00;;;9.65;;
51326;SDS011;37412;52.836;6.362;2023-03-08T04:48:04;15.45;;;10.43;;
51326;SDS011;37412;52.836;6.362;2023-03-08T04:50:53;15.40;;;10.27;;
51326;SDS011;37412;52.836;6.362;2023-03-08T04:53:40;14.02;;;9.63;;
51326;SDS011;37412;52.836;6.362;2023-03-08T04:56:28;15.32;;;8.95;;
51326;SDS011;37412;52.836;6.362;2023-03-08T04:59:15;16.73;;;9.85;;
51326;SDS011;37412;52.836;6.362;2023-03-08T05:02:01;11.75;;;9.48;;
51326;SDS011;37412;52.836;6.362;2023-03-08T05:04:48;12.85;;;10.10;;
51326;SDS011;37412;52.836;6.362;2023-03-08T05:07:34;14.85;;;9.80;;
51326;SDS011;37412;52.836;6.362;2023-03-08T05:10:20;13.25;;;9.35;;
51326;SDS011;37412;52.836;6.362;2023-03-08T05:13:06;14.00;;;9.38;;
51326;SDS011;37412;52.836;6.362;2023-03-08T05:15:55;13.38;;;9.15;;
51326;SDS011;37412;52.836;6.362;2023-03-08T05:18:41;14.68;;;9.25;;
51326;SDS011;37412;52.836;6.362;2023-03-08T05:21:27;15.75;;;9.27;;
51326;SDS011;37412;52.836;6.362;2023-03-08T05:24:13;13.57;;;8.70;;
51326;SDS011;37412;52.836;6.362;2023-03-08T05:26:59;11.93;;;9.15;;
51326;SDS011;37412;52.836;6.362;2023-03-08T05:29:45;12.23;;;8.82;;
51326;SDS011;37412;52.836;6.362;2023-03-08T05:32:31;12.63;;;9.57;;
51326;SDS011;37412;52.836;6.362;2023-03-08T05:35:17;14.77;;;9.73;;
51326;SDS011;37412;52.836;6.362;2023-03-08T05:38:03;12.50;;;9.95;;
51326;SDS011;37412;52.836;6.362;2023-03-08T05:40:49;10.85;;;8.65;;
51326;SDS011;37412;52.836;6.362;2023-03-08T05:43:35;12.88;;;8.43;;
51326;SDS011;37412;52.836;6.362;2023-03-08T05:46:21;11.77;;;8.90;;
51326;SDS011;37412;52.836;6.362;2023-03-08T05:49:07;13.13;;;8.82;;
51326;SDS011;37412;52.836;6.362;2023-03-08T05:51:53;12.05;;;8.07;;
51326;SDS011;37412;52.836;6.362;2023-03-08T05:54:39;13.45;;;8.23;;
51326;SDS011;37412;52.836;6.362;2023-03-08T05:57:26;15.57;;;10.20;;
51326;SDS011;37412;52.836;6.362;2023-03-08T06:00:12;14.07;;;8.90;;
51326;SDS011;37412;52.836;6.362;2023-03-08T06:02:59;11.25;;;8.70;;
51326;SDS011;37412;52.836;6.362;2023-03-08T06:05:48;12.57;;;8.50;;
51326;SDS011;37412;52.836;6.362;2023-03-08T06:08:34;11.20;;;8.55;;
51326;SDS011;37412;52.836;6.362;2023-03-08T06:11:19;12.63;;;9.40;;
51326;SDS011;37412;52.836;6.362;2023-03-08T06:14:06;13.25;;;8.75;;
51326;SDS011;37412;52.836;6.362;2023-03-08T06:16:52;14.55;;;9.50;;
51326;SDS011;37412;52.836;6.362;2023-03-08T06:19:38;17.30;;;10.85;;
51326;SDS011;37412;52.836;6.362;2023-03-08T06:22:23;13.50;;;9.63;;
51326;SDS011;37412;52.836;6.362;2023-03-08T06:25:09;16.40;;;9.73;;
51326;SDS011;37412;52.836;6.362;2023-03-08T06:27:55;15.10;;;10.05;;
51326;SDS011;37412;52.836;6.362;2023-03-08T06:30:41;13.73;;;9.35;;
51326;SDS011;37412;52.836;6.362;2023-03-08T06:33:29;12.38;;;9.10;;
51326;SDS011;37412;52.836;6.362;2023-03-08T06:36:17;15.43;;;9.27;;
51326;SDS011;37412;52.836;6.362;2023-03-08T06:39:06;10.90;;;9.27;;
51326;SDS011;37412;52.836;6.362;2023-03-08T06:41:53;14.38;;;9.77;;
51326;SDS011;37412;52.836;6.362;2023-03-08T06:44:39;11.30;;;9.02;;
51326;SDS011;37412;52.836;6.362;2023-03-08T06:47:25;12.75;;;9.57;;
51326;SDS011;37412;52.836;6.362;2023-03-08T06:50:12;12.63;;;9.63;;
51326;SDS011;37412;52.836;6.362;2023-03-08T06:52:58;12.70;;;9.63;;
51326;SDS011;37412;52.836;6.362;2023-03-08T06:55:45;13.05;;;9.75;;
51326;SDS011;37412;52.836;6.362;2023-03-08T06:58:31;119.55;;;64.57;;
51326;SDS011;37412;52.836;6.362;2023-03-08T07:01:18;31.45;;;18.75;;
51326;SDS011;37412;52.836;6.362;2023-03-08T07:04:04;25.42;;;16.00;;
51326;SDS011;37412;52.836;6.362;2023-03-08T07:06:50;14.90;;;11.57;;
51326;SDS011;37412;52.836;6.362;2023-03-08T07:09:36;12.50;;;10.45;;
51326;SDS011;37412;52.836;6.362;2023-03-08T07:12:22;17.08;;;11.63;;
51326;SDS011;37412;52.836;6.362;2023-03-08T07:15:09;12.93;;;9.27;;
51326;SDS011;37412;52.836;6.362;2023-03-08T07:17:59;13.60;;;9.52;;
51326;SDS011;37412;52.836;6.362;2023-03-08T07:20:45;13.93;;;9.38;;
51326;SDS011;37412;52.836;6.362;2023-03-08T07:23:44;17.00;;;9.18;;
51326;SDS011;37412;52.836;6.362;2023-03-08T07:26:30;12.18;;;8.68;;
51326;SDS011;37412;52.836;6.362;2023-03-08T07:29:16;12.68;;;8.43;;
51326;SDS011;37412;52.836;6.362;2023-03-08T07:32:02;12.65;;;9.00;;
51326;SDS011;37412;52.836;6.362;2023-03-08T07:34:48;10.70;;;8.98;;
51326;SDS011;37412;52.836;6.362;2023-03-08T07:37:35;13.52;;;9.25;;
51326;SDS011;37412;52.836;6.362;2023-03-08T07:40:21;12.23;;;9.68;;
51326;SDS011;37412;52.836;6.362;2023-03-08T07:43:07;12.55;;;9.75;;
51326;SDS011;37412;52.836;6.362;2023-03-08T07:45:53;15.23;;;12.20;;
51326;SDS011;37412;52.836;6.362;2023-03-08T07:48:39;12.80;;;10.27;;
51326;SDS011;37412;52.836;6.362;2023-03-08T07:51:25;14.93;;;10.65;;
51326;SDS011;37412;52.836;6.362;2023-03-08T07:54:11;13.73;;;10.45;;
51326;SDS011;37412;52.836;6.362;2023-03-08T07:56:57;17.60;;;10.75;;
51326;SDS011;37412;52.836;6.362;2023-03-08T07:59:43;16.63;;;10.13;;
51326;SDS011;37412;52.836;6.362;2023-03-08T08:02:29;15.82;;;10.57;;
51326;SDS011;37412;52.836;6.362;2023-03-08T08:05:16;14.43;;;10.73;;
51326;SDS011;37412;52.836;6.362;2023-03-08T08:08:02;16.05;;;11.45;;
51326;SDS011;37412;52.836;6.362;2023-03-08T08:10:49;16.30;;;11.40;;
51326;SDS011;37412;52.836;6.362;2023-03-08T08:13:34;16.88;;;10.88;;
51326;SDS011;37412;52.836;6.362;2023-03-08T08:16:20;14.95;;;10.95;;
51326;SDS011;37412;52.836;6.362;2023-03-08T08:19:08;14.35;;;10.35;;
51326;SDS011;37412;52.836;6.362;2023-03-08T08:21:55;16.33;;;11.00;;
51326;SDS011;37412;52.836;6.362;2023-03-08T08:24:41;14.35;;;10.95;;
51326;SDS011;37412;52.836;6.362;2023-03-08T08:27:27;14.20;;;10.60;;
51326;SDS011;37412;52.836;6.362;2023-03-08T08:30:13;16.00;;;10.48;;
51326;SDS011;37412;52.836;6.362;2023-03-08T08:32:59;14.02;;;10.45;;
51326;SDS011;37412;52.836;6.362;2023-03-08T08:35:47;12.65;;;10.10;;
51326;SDS011;37412;52.836;6.362;2023-03-08T08:38:33;14.15;;;10.23;;
51326;SDS011;37412;52.836;6.362;2023-03-08T08:41:20;13.10;;;11.15;;
51326;SDS011;37412;52.836;6.362;2023-03-08T08:44:08;14.90;;;10.18;;
51326;SDS011;37412;52.836;6.362;2023-03-08T08:46:54;16.23;;;11.18;;
51326;SDS011;37412;52.836;6.362;2023-03-08T08:49:40;13.70;;;10.43;;
51326;SDS011;37412;52.836;6.362;2023-03-08T08:52:26;15.15;;;10.93;;
51326;SDS011;37412;52.836;6.362;2023-03-08T08:55:12;13.50;;;10.93;;
51326;SDS011;37412;52.836;6.362;2023-03-08T08:57:58;14.23;;;11.35;;
51326;SDS011;37412;52.836;6.362;2023-03-08T09:00:45;12.30;;;11.00;;
51326;SDS011;37412;52.836;6.362;2023-03-08T09:03:32;14.40;;;12.10;;
51326;SDS011;37412;52.836;6.362;2023-03-08T09:06:18;14.15;;;12.60;;
51326;SDS011;37412;52.836;6.362;2023-03-08T09:09:06;13.50;;;10.98;;
51326;SDS011;37412;52.836;6.362;2023-03-08T09:11:52;12.88;;;11.27;;
51326;SDS011;37412;52.836;6.362;2023-03-08T09:14:37;14.52;;;12.80;;
51326;SDS011;37412;52.836;6.362;2023-03-08T09:17:23;13.32;;;11.70;;
51326;SDS011;37412;52.836;6.362;2023-03-08T09:20:10;15.43;;;13.20;;
51326;SDS011;37412;52.836;6.362;2023-03-08T09:22:56;16.88;;;13.93;;
51326;SDS011;37412;52.836;6.362;2023-03-08T09:25:42;16.83;;;14.48;;
51326;SDS011;37412;52.836;6.362;2023-03-08T09:28:28;19.30;;;16.48;;
51326;SDS011;37412;52.836;6.362;2023-03-08T09:31:15;14.70;;;13.05;;
51326;SDS011;37412;52.836;6.362;2023-03-08T09:34:01;15.38;;;13.20;;
51326;SDS011;37412;52.836;6.362;2023-03-08T09:36:53;18.63;;;15.07;;
51326;SDS011;37412;52.836;6.362;2023-03-08T09:39:38;17.27;;;14.90;;
51326;SDS011;37412;52.836;6.362;2023-03-08T09:42:26;17.17;;;15.38;;
51326;SDS011;37412;52.836;6.362;2023-03-08T09:45:25;17.88;;;14.60;;
51326;SDS011;37412;52.836;6.362;2023-03-08T09:48:21;17.57;;;15.70;;
51326;SDS011;37412;52.836;6.362;2023-03-08T09:51:11;18.10;;;16.20;;
51326;SDS011;37412;52.836;6.362;2023-03-08T09:54:01;17.08;;;15.27;;
51326;SDS011;37412;52.836;6.362;2023-03-08T09:56:53;16.42;;;14.65;;
51326;SDS011;37412;52.836;6.362;2023-03-08T09:59:43;17.55;;;15.35;;
51326;SDS011;37412;52.836;6.362;2023-03-08T10:05:52;14.13;;;12.40;;
51326;SDS011;37412;52.836;6.362;2023-03-08T10:14:50;15.10;;;12.77;;
51326;SDS011;37412;52.836;6.362;2023-03-08T10:20:37;16.60;;;12.90;;
51326;SDS011;37412;52.836;6.362;2023-03-08T10:23:26;14.80;;;12.98;;
51326;SDS011;37412;52.836;6.362;2023-03-08T10:26:14;15.05;;;12.68;;
51326;SDS011;37412;52.836;6.362;2023-03-08T10:29:02;12.73;;;10.77;;
51326;SDS011;37412;52.836;6.362;2023-03-08T10:31:48;11.93;;;9.83;;
51326;SDS011;37412;52.836;6.362;2023-03-08T10:34:34;11.63;;;8.80;;
51326;SDS011;37412;52.836;6.362;2023-03-08T10:37:20;10.45;;;9.32;;
51326;SDS011;37412;52.836;6.362;2023-03-08T10:40:09;12.50;;;10.37;;
51326;SDS011;37412;52.836;6.362;2023-03-08T10:43:03;11.73;;;8.75;;
51326;SDS011;37412;52.836;6.362;2023-03-08T10:45:58;12.80;;;11.50;;
51326;SDS011;37412;52.836;6.362;2023-03-08T10:48:46;15.67;;;13.60;;
51326;SDS011;37412;52.836;6.362;2023-03-08T10:51:32;20.20;;;16.38;;
51326;SDS011;37412;52.836;6.362;2023-03-08T10:54:18;18.40;;;15.73;;
51326;SDS011;37412;52.836;6.362;2023-03-08T10:57:04;18.20;;;14.00;;
51326;SDS011;37412;52.836;6.362;2023-03-08T10:59:50;15.48;;;12.20;;
51326;SDS011;37412;52.836;6.362;2023-03-08T11:02:36;12.18;;;10.48;;
51326;SDS011;37412;52.836;6.362;2023-03-08T11:05:23;13.00;;;11.43;;
51326;SDS011;37412;52.836;6.362;2023-03-08T11:08:17;12.33;;;9.80;;
51326;SDS011;37412;52.836;6.362;2023-03-08T11:11:07;10.70;;;8.82;;
51326;SDS011;37412;52.836;6.362;2023-03-08T11:13:54;11.75;;;9.75;;
51326;SDS011;37412;52.836;6.362;2023-03-08T11:19:41;9.77;;;8.25;;
51326;SDS011;37412;52.836;6.362;2023-03-08T11:26:18;9.00;;;7.13;;
51326;SDS011;37412;52.836;6.362;2023-03-08T11:29:23;9.32;;;7.50;;
51326;SDS011;37412;52.836;6.362;2023-03-08T11:41:16;12.18;;;9.30;;
51326;SDS011;37412;52.836;6.362;2023-03-08T11:50:33;12.13;;;9.10;;
51326;SDS011;37412;52.836;6.362;2023-03-08T11:59:36;11.25;;;9.15;;
51326;SDS011;37412;52.836;6.362;2023-03-08T12:02:29;13.15;;;9.63;;
51326;SDS011;37412;52.836;6.362;2023-03-08T12:05:31;13.77;;;10.20;;
51326;SDS011;37412;52.836;6.362;2023-03-08T12:08:32;13.43;;;10.27;;
51326;SDS011;37412;52.836;6.362;2023-03-08T12:11:23;14.13;;;9.48;;
51326;SDS011;37412;52.836;6.362;2023-03-08T12:14:17;14.02;;;9.50;;
51326;SDS011;37412;52.836;6.362;2023-03-08T12:17:21;13.80;;;9.32;;
51326;SDS011;37412;52.836;6.362;2023-03-08T12:20:15;12.82;;;8.20;;
51326;SDS011;37412;52.836;6.362;2023-03-08T12:23:18;12.82;;;8.80;;
51326;SDS011;37412;52.836;6.362;2023-03-08T12:26:20;12.90;;;9.30;;
51326;SDS011;37412;52.836;6.362;2023-03-08T12:29:20;11.20;;;8.37;;
51326;SDS011;37412;52.836;6.362;2023-03-08T12:32:17;11.80;;;8.10;;
51326;SDS011;37412;52.836;6.362;2023-03-08T12:35:27;10.77;;;7.95;;
51326;SDS011;37412;52.836;6.362;2023-03-08T12:41:04;10.43;;;7.20;;
51326;SDS011;37412;52.836;6.362;2023-03-08T12:44:05;11.18;;;7.40;;
51326;SDS011;37412;52.836;6.362;2023-03-08T12:50:05;12.45;;;7.78;;
51326;SDS011;37412;52.836;6.362;2023-03-08T12:52:53;10.45;;;7.00;;
51326;SDS011;37412;52.836;6.362;2023-03-08T12:55:40;9.88;;;6.05;;
51326;SDS011;37412;52.836;6.362;2023-03-08T12:58:27;10.27;;;6.22;;
51326;SDS011;37412;52.836;6.362;2023-03-08T13:01:28;9.27;;;5.80;;
51326;SDS011;37412;52.836;6.362;2023-03-08T13:07:38;9.93;;;5.90;;
51326;SDS011;37412;52.836;6.362;2023-03-08T13:10:38;11.30;;;6.35;;
51326;SDS011;37412;52.836;6.362;2023-03-08T13:13:48;9.88;;;6.00;;
51326;SDS011;37412;52.836;6.362;2023-03-08T13:16:40;10.10;;;5.55;;
51326;SDS011;37412;52.836;6.362;2023-03-08T13:19:27;11.07;;;6.30;;
51326;SDS011;37412;52.836;6.362;2023-03-08T13:22:17;9.73;;;5.33;;
51326;SDS011;37412;52.836;6.362;2023-03-08T13:28:35;9.68;;;5.65;;
51326;SDS011;37412;52.836;6.362;2023-03-08T13:31:29;9.27;;;5.20;;
51326;SDS011;37412;52.836;6.362;2023-03-08T13:34:23;9.87;;;5.47;;
51326;SDS011;37412;52.836;6.362;2023-03-08T13:37:19;8.38;;;4.65;;
51326;SDS011;37412;52.836;6.362;2023-03-08T13:40:19;9.35;;;4.22;;
51326;SDS011;37412;52.836;6.362;2023-03-08T13:43:12;7.68;;;4.72;;
51326;SDS011;37412;52.836;6.362;2023-03-08T13:45:59;7.65;;;4.80;;
51326;SDS011;37412;52.836;6.362;2023-03-08T13:48:54;9.35;;;4.32;;
51326;SDS011;37412;52.836;6.362;2023-03-08T13:51:41;7.32;;;4.22;;
51326;SDS011;37412;52.836;6.362;2023-03-08T13:57:17;8.20;;;4.25;;
51326;SDS011;37412;52.836;6.362;2023-03-08T14:03:17;8.43;;;4.72;;
51326;SDS011;37412;52.836;6.362;2023-03-08T14:06:15;7.65;;;4.88;;
51326;SDS011;37412;52.836;6.362;2023-03-08T14:09:15;6.28;;;4.20;;
51326;SDS011;37412;52.836;6.362;2023-03-08T14:12:02;6.25;;;4.05;;
51326;SDS011;37412;52.836;6.362;2023-03-08T14:14:53;7.15;;;3.95;;
51326;SDS011;37412;52.836;6.362;2023-03-08T14:17:42;7.25;;;4.20;;
51326;SDS011;37412;52.836;6.362;2023-03-08T14:20:28;6.18;;;3.60;;
51326;SDS011;37412;52.836;6.362;2023-03-08T14:23:20;6.03;;;3.73;;
51326;SDS011;37412;52.836;6.362;2023-03-08T14:35:13;6.82;;;4.00;;
51326;SDS011;37412;52.836;6.362;2023-03-08T14:38:11;8.13;;;5.40;;
51326;SDS011;37412;52.836;6.362;2023-03-08T14:41:00;8.07;;;4.82;;
51326;SDS011;37412;52.836;6.362;2023-03-08T14:43:50;6.57;;;3.50;;
51326;SDS011;37412;52.836;6.362;2023-03-08T14:46:36;7.07;;;3.58;;
51326;SDS011;37412;52.836;6.362;2023-03-08T14:49:23;7.28;;;3.72;;
51326;SDS011;37412;52.836;6.362;2023-03-08T14:52:19;5.05;;;3.42;;
51326;SDS011;37412;52.836;6.362;2023-03-08T14:55:18;7.22;;;3.45;;
51326;SDS011;37412;52.836;6.362;2023-03-08T14:58:09;8.00;;;4.10;;
51326;SDS011;37412;52.836;6.362;2023-03-08T15:00:58;8.35;;;5.85;;
51326;SDS011;37412;52.836;6.362;2023-03-08T15:03:45;7.45;;;5.05;;
51326;SDS011;37412;52.836;6.362;2023-03-08T15:06:32;12.70;;;9.07;;
51326;SDS011;37412;52.836;6.362;2023-03-08T15:09:20;11.07;;;7.53;;
51326;SDS011;37412;52.836;6.362;2023-03-08T15:12:07;8.83;;;5.63;;
51326;SDS011;37412;52.836;6.362;2023-03-08T15:14:54;6.22;;;4.35;;
51326;SDS011;37412;52.836;6.362;2023-03-08T15:17:40;7.88;;;4.63;;
51326;SDS011;37412;52.836;6.362;2023-03-08T15:20:27;8.75;;;4.28;;
51326;SDS011;37412;52.836;6.362;2023-03-08T15:23:19;7.78;;;4.63;;
51326;SDS011;37412;52.836;6.362;2023-03-08T15:26:12;9.05;;;4.82;;
51326;SDS011;37412;52.836;6.362;2023-03-08T15:29:00;9.35;;;5.50;;
51326;SDS011;37412;52.836;6.362;2023-03-08T15:31:49;10.38;;;5.93;;
51326;SDS011;37412;52.836;6.362;2023-03-08T15:34:35;10.20;;;5.97;;
51326;SDS011;37412;52.836;6.362;2023-03-08T15:37:21;10.50;;;5.88;;
51326;SDS011;37412;52.836;6.362;2023-03-08T15:40:14;9.35;;;5.20;;
51326;SDS011;37412;52.836;6.362;2023-03-08T15:43:04;7.25;;;4.43;;
51326;SDS011;37412;52.836;6.362;2023-03-08T15:45:50;9.32;;;4.75;;
51326;SDS011;37412;52.836;6.362;2023-03-08T15:48:36;6.65;;;4.22;;
51326;SDS011;37412;52.836;6.362;2023-03-08T15:51:24;7.53;;;4.20;;
51326;SDS011;37412;52.836;6.362;2023-03-08T15:54:13;5.88;;;3.90;;
51326;SDS011;37412;52.836;6.362;2023-03-08T15:56:59;5.82;;;3.70;;
51326;SDS011;37412;52.836;6.362;2023-03-08T15:59:45;5.70;;;3.35;;
51326;SDS011;37412;52.836;6.362;2023-03-08T16:02:31;8.23;;;3.88;;
51326;SDS011;37412;52.836;6.362;2023-03-08T16:05:18;7.72;;;5.05;;
51326;SDS011;37412;52.836;6.362;2023-03-08T16:08:07;8.52;;;4.10;;
51326;SDS011;37412;52.836;6.362;2023-03-08T16:10:53;7.65;;;3.85;;
51326;SDS011;37412;52.836;6.362;2023-03-08T16:13:39;8.25;;;4.72;;
51326;SDS011;37412;52.836;6.362;2023-03-08T16:16:25;10.13;;;6.10;;
51326;SDS011;37412;52.836;6.362;2023-03-08T16:19:11;8.95;;;5.88;;
51326;SDS011;37412;52.836;6.362;2023-03-08T16:21:57;12.10;;;6.73;;
51326;SDS011;37412;52.836;6.362;2023-03-08T16:24:44;9.57;;;5.93;;
51326;SDS011;37412;52.836;6.362;2023-03-08T16:27:30;9.07;;;6.10;;
51326;SDS011;37412;52.836;6.362;2023-03-08T16:30:17;10.38;;;6.75;;
51326;SDS011;37412;52.836;6.362;2023-03-08T16:33:03;11.88;;;8.23;;
51326;SDS011;37412;52.836;6.362;2023-03-08T16:35:50;12.77;;;7.97;;
51326;SDS011;37412;52.836;6.362;2023-03-08T16:38:36;13.23;;;7.38;;
51326;SDS011;37412;52.836;6.362;2023-03-08T16:41:23;10.10;;;6.93;;
51326;SDS011;37412;52.836;6.362;2023-03-08T16:44:18;11.13;;;7.85;;
51326;SDS011;37412;52.836;6.362;2023-03-08T16:47:11;8.55;;;6.53;;
51326;SDS011;37412;52.836;6.362;2023-03-08T16:49:57;9.90;;;6.93;;
51326;SDS011;37412;52.836;6.362;2023-03-08T16:52:45;10.43;;;6.28;;
51326;SDS011;37412;52.836;6.362;2023-03-08T16:55:33;8.80;;;5.72;;
51326;SDS011;37412;52.836;6.362;2023-03-08T16:58:20;8.68;;;5.75;;
51326;SDS011;37412;52.836;6.362;2023-03-08T17:01:12;6.93;;;4.70;;
51326;SDS011;37412;52.836;6.362;2023-03-08T17:04:00;7.68;;;4.90;;
51326;SDS011;37412;52.836;6.362;2023-03-08T17:06:46;7.63;;;5.00;;
51326;SDS011;37412;52.836;6.362;2023-03-08T17:09:32;7.20;;;4.50;;
51326;SDS011;37412;52.836;6.362;2023-03-08T17:12:21;8.45;;;5.20;;
51326;SDS011;37412;52.836;6.362;2023-03-08T17:15:07;8.47;;;5.03;;
51326;SDS011;37412;52.836;6.362;2023-03-08T17:17:55;8.00;;;5.20;;
51326;SDS011;37412;52.836;6.362;2023-03-08T17:20:41;6.88;;;5.03;;
51326;SDS011;37412;52.836;6.362;2023-03-08T17:23:27;7.63;;;4.82;;
51326;SDS011;37412;52.836;6.362;2023-03-08T17:26:13;6.70;;;5.07;;
51326;SDS011;37412;52.836;6.362;2023-03-08T17:29:00;7.32;;;4.85;;
51326;SDS011;37412;52.836;6.362;2023-03-08T17:31:47;7.40;;;5.10;;
51326;SDS011;37412;52.836;6.362;2023-03-08T17:34:33;9.43;;;5.68;;
51326;SDS011;37412;52.836;6.362;2023-03-08T17:37:19;9.50;;;5.70;;
51326;SDS011;37412;52.836;6.362;2023-03-08T17:40:08;8.15;;;5.57;;
51326;SDS011;37412;52.836;6.362;2023-03-08T17:42:56;8.73;;;5.93;;
51326;SDS011;37412;52.836;6.362;2023-03-08T17:45:45;11.20;;;6.25;;